Time;durP1;ratioP1;P1;durP2;ratioP2;P2;SDS_P1;SDS_P2;PMS_P1;PMS_P2;Temp;Humidity;BMP_temperature;BMP_pressure;BME280_temperature;BME280_humidity;BME280_pressure;Samples;Min_cycle;Max_cycle;Signal;HPM_P1;HPM_P2
2023/07/13 00:01:56;;;;;;;;;;;;;;;;;;4878541;29;1011;-52
2023/07/13 00:04:25;;;;;;;;;;;;;;;;;;4878480;29;1966;-55
2023/07/13 00:06:53;;;;;;;;;;;;;;;;;;4877851;29;980;-55
2023/07/13 00:09:21;;;;;;;;;;;;;;;;;;4878318;29;1008;-55
2023/07/13 00:11:56;;;;;;;;;;;;;;;;;;4878232;29;1110;-55
2023/07/13 00:14:24;;;;;;;;;;;;;;;;;;4877772;29;1192;-55
2023/07/13 00:16:52;;;;;;;;;;;;;;;;;;4878246;29;1121;-55
2023/07/13 00:19:19;;;;;;;;;;;;;;;;;;4877954;29;1712;-55
2023/07/13 00:21:47;;;;;;;;;;;;;;;;;;4877874;29;1001;-55
2023/07/13 00:24:16;;;;;;;;;;;;;;;;;;4878095;29;1911;-55
2023/07/13 00:26:47;;;;;;;;;;;;;;;;;;4878436;29;1293;-53
2023/07/13 00:29:16;;;;;;;;;;;;;;;;;;4877643;29;1571;-54
2023/07/13 00:31:44;;;;;;;;;;;;;;;;;;4878226;29;1099;-53
2023/07/13 00:34:11;;;;;;;;;;;;;;;;;;4877539;29;1197;-50
2023/07/13 00:36:39;;;;;;;;;;;;;;;;;;4877289;29;1719;-54
2023/07/13 00:39:06;;;;;;;;;;;;;;;;;;4877743;29;1187;-53
2023/07/13 00:41:33;;;;;;;;;;;;;;;;;;4877960;29;967;-54
2023/07/13 00:44:03;;;;;;;;;;;;;;;;;;4877185;29;1915;-55
2023/07/13 00:46:34;;;;;;;;;;;;;;;;;;4861014;29;1376;-52
2023/07/13 00:49:04;;;;;;;;;;;;;;;;;;4876268;29;1665;-50
2023/07/13 00:51:34;;;;;;;;;;;;;;;;;;4877455;29;1326;-55
2023/07/13 00:54:04;;;;;;;;;;;;;;;;;;4860633;29;1336;-52
2023/07/13 00:56:35;;;;;;;;;;;;;;;;;;4878140;29;1307;-52
2023/07/13 00:59:03;;;;;;;;;;;;;;;;;;4877105;29;1120;-53
2023/07/13 01:01:31;;;;;;;;;;;;;;;;;;4877782;29;1315;-51
2023/07/13 01:03:58;;;;;;;;;;;;;;;;;;4877267;29;1904;-54
2023/07/13 01:06:26;;;;;;;;;;;;;;;;;;4877098;29;1301;-55
2023/07/13 01:08:54;;;;;;;;;;;;;;;;;;4877369;29;1327;-54
2023/07/13 01:11:22;;;;;;;;;;;;;;;;;;4877197;29;880;-54
2023/07/13 01:13:51;;;;;;;;;;;;;;;;;;4876731;29;1158;-53
2023/07/13 01:16:24;;;;;;;;;;;;;;;;;;4876002;29;1107;-51
2023/07/13 01:18:52;;;;;;;;;;;;;;;;;;4877575;29;1295;-54
2023/07/13 01:21:19;;;;;;;;;;;;;;;;;;4876814;29;1151;-52
2023/07/13 01:23:48;;;;;;;;;;;;;;;;;;4877511;29;1914;-53
2023/07/13 01:26:15;;;;;;;;;;;;;;;;;;4877028;29;1006;-54
2023/07/13 01:28:43;;;;;;;;;;;;;;;;;;4877228;29;1136;-52
2023/07/13 01:31:11;;;;;;;;;;;;;;;;;;4860450;29;1657;-52
2023/07/13 01:33:40;;;;;;;;;;;;;;;;;;4877235;29;1247;-54
2023/07/13 01:36:07;;;;;;;;;;;;;;;;;;4879649;29;1139;-54
2023/07/13 01:38:36;;;;;;;;;;;;;;;;;;4879713;29;1374;-53
2023/07/13 01:41:04;;;;;;;;;;;;;;;;;;4880771;29;1104;-54
2023/07/13 01:43:32;;;;;;;;;;;;;;;;;;4879094;29;1362;-54
2023/07/13 01:45:59;;;;;;;;;;;;;;;;;;4880519;29;2012;-54
2023/07/13 01:48:47;;;;;;;;;;;;;;;;;;4864358;29;1364;-53
2023/07/13 01:51:15;;;;;;;;;;;;;;;;;;4880164;29;1139;-53
2023/07/13 01:53:44;;;;;;;;;;;;;;;;;;4864203;29;1435;-54
2023/07/13 01:56:11;;;;;;;;;;;;;;;;;;4880400;29;1136;-52
2023/07/13 01:58:39;;;;;;;;;;;;;;;;;;4863648;29;2158;-54
2023/07/13 02:01:06;;;;;;;;;;;;;;;;;;4879191;29;1513;-52
2023/07/13 02:03:34;;;;;;;;;;;;;;;;;;4880609;29;1181;-53
2023/07/13 02:06:01;;;;;;;;;;;;;;;;;;4879910;29;1915;-53
2023/07/13 02:08:29;;;;;;;;;;;;;;;;;;4863756;29;1373;-49
2023/07/13 02:10:56;;;;;;;;;;;;;;;;;;4880405;29;1097;-54
2023/07/13 02:13:24;;;;;;;;;;;;;;;;;;4863240;29;1388;-51
2023/07/13 02:15:51;;;;;;;;;;;;;;;;;;4863567;29;2336;-53
2023/07/13 02:18:19;;;;;;;;;;;;;;;;;;4880401;29;1420;-51
2023/07/13 02:20:46;;;;;;;;;;;;;;;;;;4880131;29;1262;-54
2023/07/13 02:23:13;;;;;;;;;;;;;;;;;;4880524;29;1129;-52
2023/07/13 02:25:47;;;;;;;;;;;;;;;;;;4880382;29;1919;-54
2023/07/13 02:28:15;;;;;;;;;;;;;;;;;;4863127;29;1433;-54
2023/07/13 02:30:42;;;;;;;;;;;;;;;;;;4863441;29;1306;-54
2023/07/13 02:33:10;;;;;;;;;;;;;;;;;;4879873;29;1164;-50
2023/07/13 02:35:37;;;;;;;;;;;;;;;;;;4879535;29;1245;-53
2023/07/13 02:38:05;;;;;;;;;;;;;;;;;;4879632;29;1092;-52
2023/07/13 02:40:35;;;;;;;;;;;;;;;;;;4863220;29;1223;-50
2023/07/13 02:43:03;;;;;;;;;;;;;;;;;;4879417;29;1152;-54
2023/07/13 02:45:31;;;;;;;;;;;;;;;;;;4879399;29;1907;-53
2023/07/13 02:47:58;;;;;;;;;;;;;;;;;;4877564;29;1345;-51
2023/07/13 02:50:25;;;;;;;;;;;;;;;;;;4879365;29;1043;-53
2023/07/13 02:52:53;;;;;;;;;;;;;;;;;;4862876;29;1336;-52
2023/07/13 02:55:20;;;;;;;;;;;;;;;;;;4862936;29;1196;-54
2023/07/13 02:57:47;;;;;;;;;;;;;;;;;;4879324;29;1150;-53
2023/07/13 03:00:16;;;;;;;;;;;;;;;;;;4879573;29;1181;-52
2023/07/13 03:02:43;;;;;;;;;;;;;;;;;;4879761;29;1270;-52
2023/07/13 03:05:12;;;;;;;;;;;;;;;;;;4878846;29;2349;-54
2023/07/13 03:07:42;;;;;;;;;;;;;;;;;;4878273;29;1262;-52
2023/07/13 03:10:10;;;;;;;;;;;;;;;;;;4862758;29;1456;-51
2023/07/13 03:12:45;;;;;;;;;;;;;;;;;;4862394;29;1212;-52
2023/07/13 03:15:24;;;;;;;;;;;;;;;;;;4862289;29;1245;-54
2023/07/13 03:17:54;;;;;;;;;;;;;;;;;;4862686;29;1265;-54
2023/07/13 03:20:21;;;;;;;;;;;;;;;;;;4879118;29;1086;-53
2023/07/13 03:22:49;;;;;;;;;;;;;;;;;;4878011;29;1246;-51
2023/07/13 03:25:18;;;;;;;;;;;;;;;;;;4883814;29;1965;-53
2023/07/13 03:27:45;;;;;;;;;;;;;;;;;;4862219;29;1272;-54
2023/07/13 03:30:16;;;;;;;;;;;;;;;;;;4879090;29;1677;-54
2023/07/13 03:32:44;;;;;;;;;;;;;;;;;;4862851;29;1220;-49
2023/07/13 03:35:11;;;;;;;;;;;;;;;;;;4861894;29;1730;-54
2023/07/13 03:37:42;;;;;;;;;;;;;;;;;;4878946;29;993;-53
2023/07/13 03:40:14;;;;;;;;;;;;;;;;;;4879008;29;1173;-53
2023/07/13 03:42:44;;;;;;;;;;;;;;;;;;4877398;29;1185;-53
2023/07/13 03:45:14;;;;;;;;;;;;;;;;;;4877839;29;1973;-53
2023/07/13 03:47:42;;;;;;;;;;;;;;;;;;4878739;29;1059;-54
2023/07/13 03:50:09;;;;;;;;;;;;;;;;;;4861217;29;1493;-51
2023/07/13 03:52:37;;;;;;;;;;;;;;;;;;4861941;29;1348;-54
2023/07/13 03:55:05;;;;;;;;;;;;;;;;;;4861703;29;1263;-55
2023/07/13 03:57:34;;;;;;;;;;;;;;;;;;4876544;29;1459;-52
2023/07/13 04:00:05;;;;;;;;;;;;;;;;;;4878767;29;1131;-52
2023/07/13 04:02:41;;;;;;;;;;;;;;;;;;4878523;29;1210;-52
2023/07/13 04:05:09;;;;;;;;;;;;;;;;;;4876484;29;1972;-54
2023/07/13 04:07:36;;;;;;;;;;;;;;;;;;4878443;29;1073;-50
2023/07/13 04:10:06;;;;;;;;;;;;;;;;;;4876905;29;2335;-52
2023/07/13 04:12:33;;;;;;;;;;;;;;;;;;4878088;29;1341;-52
2023/07/13 04:15:01;;;;;;;;;;;;;;;;;;4877952;29;1178;-54
2023/07/13 04:17:28;;;;;;;;;;;;;;;;;;4878288;29;1049;-53
2023/07/13 04:19:55;;;;;;;;;;;;;;;;;;4877709;29;1234;-51
2023/07/13 04:22:22;;;;;;;;;;;;;;;;;;4878086;29;1306;-52
2023/07/13 04:24:50;;;;;;;;;;;;;;;;;;4877932;29;1974;-51
2023/07/13 04:27:17;;;;;;;;;;;;;;;;;;4877724;29;1236;-52
2023/07/13 04:29:44;;;;;;;;;;;;;;;;;;4877979;29;1107;-55
2023/07/13 04:32:11;;;;;;;;;;;;;;;;;;4877841;29;1124;-54
2023/07/13 04:34:39;;;;;;;;;;;;;;;;;;4877459;29;1232;-52
2023/07/13 04:37:07;;;;;;;;;;;;;;;;;;4877726;29;1271;-51
2023/07/13 04:39:34;;;;;;;;;;;;;;;;;;4877955;29;1155;-55
2023/07/13 04:42:03;;;;;;;;;;;;;;;;;;4876925;29;1152;-54
2023/07/13 04:44:31;;;;;;;;;;;;;;;;;;4877931;29;1153;-54
2023/07/13 04:46:58;;;;;;;;;;;;;;;;;;4877424;29;1903;-50
2023/07/13 04:49:28;;;;;;;;;;;;;;;;;;4877139;29;1195;-62
2023/07/13 04:51:55;;;;;;;;;;;;;;;;;;4877610;29;1300;-54
2023/07/13 04:54:23;;;;;;;;;;;;;;;;;;4877582;29;1352;-54
2023/07/13 04:56:50;;;;;;;;;;;;;;;;;;4876780;29;1166;-52
2023/07/13 04:59:17;;;;;;;;;;;;;;;;;;4877754;29;1204;-56
2023/07/13 05:01:46;;;;;;;;;;;;;;;;;;4878195;29;1426;-56
2023/07/13 05:04:13;;;;;;;;;;;;;;;;;;4876902;29;1050;-56
2023/07/13 05:06:40;;;;;;;;;;;;;;;;;;4877389;29;1970;-55
2023/07/13 05:09:08;;;;;;;;;;;;;;;;;;4876317;29;1042;-54
2023/07/13 05:11:35;;;;;;;;;;;;;;;;;;4877036;29;1235;-54
2023/07/13 05:14:02;;;;;;;;;;;;;;;;;;4877422;29;1152;-56
2023/07/13 05:16:29;;;;;;;;;;;;;;;;;;4877494;29;1328;-55
2023/07/13 05:18:57;;;;;;;;;;;;;;;;;;4877127;29;1270;-54
2023/07/13 05:21:24;;;;;;;;;;;;;;;;;;4877296;29;1227;-54
2023/07/13 05:23:54;;;;;;;;;;;;;;;;;;4875388;29;1163;-55
2023/07/13 05:26:24;;;;;;;;;;;;;;;;;;4876513;29;1974;-55
2023/07/13 05:28:51;;;;;;;;;;;;;;;;;;4877344;29;1021;-55
2023/07/13 05:31:18;;;;;;;;;;;;;;;;;;4876933;29;1206;-59
2023/07/13 05:33:46;;;;;;;;;;;;;;;;;;4876870;29;1039;-55
2023/07/13 05:36:13;;;;;;;;;;;;;;;;;;4877019;29;1235;-53
2023/07/13 05:38:40;;;;;;;;;;;;;;;;;;4877269;29;1137;-55
2023/07/13 05:41:08;;;;;;;;;;;;;;;;;;4876289;29;1225;-55
2023/07/13 05:43:35;;;;;;;;;;;;;;;;;;4877206;29;1284;-55
2023/07/13 05:46:03;;;;;;;;;;;;;;;;;;4877090;29;1915;-53
2023/07/13 05:48:30;;;;;;;;;;;;;;;;;;4876950;29;1229;-55
2023/07/13 05:50:58;;;;;;;;;;;;;;;;;;4877305;29;1250;-54
2023/07/13 05:53:25;;;;;;;;;;;;;;;;;;4877037;29;1375;-55
2023/07/13 05:55:54;;;;;;;;;;;;;;;;;;4876517;29;1225;-55
2023/07/13 05:58:21;;;;;;;;;;;;;;;;;;4876689;29;1166;-56
2023/07/13 06:00:49;;;;;;;;;;;;;;;;;;4876892;29;993;-56
2023/07/13 06:03:16;;;;;;;;;;;;;;;;;;4876198;29;1150;-56
2023/07/13 06:05:43;;;;;;;;;;;;;;;;;;4876866;29;1911;-56
2023/07/13 06:08:11;;;;;;;;;;;;;;;;;;4876793;29;1110;-56
2023/07/13 06:10:38;;;;;;;;;;;;;;;;;;4876290;29;917;-55
2023/07/13 06:13:05;;;;;;;;;;;;;;;;;;4876342;29;1196;-53
2023/07/13 06:15:33;;;;;;;;;;;;;;;;;;4876513;29;1213;-55
2023/07/13 06:18:00;;;;;;;;;;;;;;;;;;4876507;29;1267;-58
2023/07/13 06:20:28;;;;;;;;;;;;;;;;;;4877316;29;1164;-55
2023/07/13 06:22:56;;;;;;;;;;;;;;;;;;4880450;29;1226;-55
2023/07/13 06:25:23;;;;;;;;;;;;;;;;;;4879431;29;1907;-57
2023/07/13 06:27:50;;;;;;;;;;;;;;;;;;4861608;29;1144;-57
2023/07/13 06:30:18;;;;;;;;;;;;;;;;;;4861125;29;1837;-57
2023/07/13 06:32:45;;;;;;;;;;;;;;;;;;4860870;29;1198;-58
2023/07/13 06:35:13;;;;;;;;;;;;;;;;;;4861306;29;1053;-58
2023/07/13 06:37:40;;;;;;;;;;;;;;;;;;4877229;29;1143;-55
2023/07/13 06:40:08;;;;;;;;;;;;;;;;;;4879233;29;1604;-57
2023/07/13 06:42:35;;;;;;;;;;;;;;;;;;4879892;29;932;-57
2023/07/13 06:45:03;;;;;;;;;;;;;;;;;;4879663;29;1101;-55
2023/07/13 06:47:30;;;;;;;;;;;;;;;;;;4879505;29;1949;-57
2023/07/13 06:50:00;;;;;;;;;;;;;;;;;;4880419;29;1586;-57
2023/07/13 06:52:27;;;;;;;;;;;;;;;;;;4879596;29;1335;-56
2023/07/13 06:54:55;;;;;;;;;;;;;;;;;;4879656;29;947;-55
2023/07/13 06:57:22;;;;;;;;;;;;;;;;;;4879199;29;1251;-59
2023/07/13 06:59:49;;;;;;;;;;;;;;;;;;4879472;29;1027;-58
2023/07/13 07:02:17;;;;;;;;;;;;;;;;;;4879238;29;1345;-56
2023/07/13 07:04:44;;;;;;;;;;;;;;;;;;4879486;29;1094;-55
2023/07/13 07:07:11;;;;;;;;;;;;;;;;;;4879287;29;1970;-56
2023/07/13 07:09:39;;;;;;;;;;;;;;;;;;4878806;29;1147;-57
2023/07/13 07:12:06;;;;;;;;;;;;;;;;;;4879045;29;1213;-57
2023/07/13 07:14:34;;;;;;;;;;;;;;;;;;4879581;29;1339;-57
2023/07/13 07:17:02;;;;;;;;;;;;;;;;;;4878665;29;1166;-56
2023/07/13 07:19:30;;;;;;;;;;;;;;;;;;4879140;29;1131;-59
2023/07/13 07:21:57;;;;;;;;;;;;;;;;;;4879374;29;1130;-58
2023/07/13 07:24:25;;;;;;;;;;;;;;;;;;4879040;29;1344;-59
2023/07/13 07:26:52;;;;;;;;;;;;;;;;;;4878928;29;1919;-59
2023/07/13 07:29:24;;;;;;;;;;;;;;;;;;4879171;29;1190;-58
2023/07/13 07:31:55;;;;;;;;;;;;;;;;;;4877937;29;1064;-58
2023/07/13 07:34:25;;;;;;;;;;;;;;;;;;4879114;29;1097;-60
2023/07/13 07:36:53;;;;;;;;;;;;;;;;;;4878739;29;1209;-57
2023/07/13 07:39:23;;;;;;;;;;;;;;;;;;4878335;29;1157;-63
2023/07/13 07:41:51;;;;;;;;;;;;;;;;;;4878806;29;1197;-58
2023/07/13 07:44:21;;;;;;;;;;;;;;;;;;4878459;29;952;-57
2023/07/13 07:46:49;;;;;;;;;;;;;;;;;;4878172;29;1916;-62
2023/07/13 07:49:16;;;;;;;;;;;;;;;;;;4878701;29;1035;-57
2023/07/13 07:51:44;;;;;;;;;;;;;;;;;;4878530;29;1058;-59
2023/07/13 07:54:11;;;;;;;;;;;;;;;;;;4877084;29;1379;-56
2023/07/13 07:56:44;;;;;;;;;;;;;;;;;;4876694;29;1198;-57
2023/07/13 07:59:31;;;;;;;;;;;;;;;;;;4876932;29;1013;-57
2023/07/13 08:02:22;;;;;;;;;;;;;;;;;;4877171;29;863;-57
2023/07/13 08:04:53;;;;;;;;;;;;;;;;;;4878488;29;1179;-52
2023/07/13 08:07:23;;;;;;;;;;;;;;;;;;4877639;29;1978;-50
2023/07/13 08:09:53;;;;;;;;;;;;;;;;;;4878447;29;1030;-54
2023/07/13 08:12:21;;;;;;;;;;;;;;;;;;4878236;29;1104;-59
2023/07/13 08:14:57;;;;;;;;;;;;;;;;;;4877838;29;1076;-58
2023/07/13 08:17:25;;;;;;;;;;;;;;;;;;4878285;29;1206;-59
2023/07/13 08:19:52;;;;;;;;;;;;;;;;;;4878587;29;1082;-58
2023/07/13 08:22:20;;;;;;;;;;;;;;;;;;4877689;29;1042;-58
2023/07/13 08:24:55;;;;;;;;;;;;;;;;;;4878977;29;1147;-59
2023/07/13 08:27:25;;;;;;;;;;;;;;;;;;4877745;29;1986;-56
2023/07/13 08:29:52;;;;;;;;;;;;;;;;;;4877750;29;1093;-57
2023/07/13 08:32:21;;;;;;;;;;;;;;;;;;4877213;29;1113;-55
2023/07/13 08:34:48;;;;;;;;;;;;;;;;;;4877754;29;1094;-57
2023/07/13 08:37:16;;;;;;;;;;;;;;;;;;4876966;29;1173;-60
2023/07/13 08:39:46;;;;;;;;;;;;;;;;;;4877781;29;1038;-57
2023/07/13 08:42:16;;;;;;;;;;;;;;;;;;4877818;29;1301;-59
2023/07/13 08:44:53;;;;;;;;;;;;;;;;;;4876765;29;1127;-59
2023/07/13 08:47:22;;;;;;;;;;;;;;;;;;4876901;29;1984;-59
2023/07/13 08:49:50;;;;;;;;;;;;;;;;;;4877581;29;1255;-57
2023/07/13 08:52:47;;;;;;;;;;;;;;;;;;4876886;29;1422;-60
2023/07/13 08:55:17;;;;;;;;;;;;;;;;;;4869572;29;1323;-59
2023/07/13 08:57:46;;;;;;;;;;;;;;;;;;4877506;29;1330;-59
2023/07/13 09:00:15;;;;;;;;;;;;;;;;;;4876822;29;1061;-59
2023/07/13 09:02:50;;;;;;;;;;;;;;;;;;4877499;29;999;-59
2023/07/13 09:05:21;;;;;;;;;;;;;;;;;;4877270;29;1395;-59
2023/07/13 09:08:01;;;;;;;;;;;;;;;;;;4876484;29;1911;-59
2023/07/13 09:10:31;;;;;;;;;;;;;;;;;;4877674;29;1234;-59
2023/07/13 09:12:59;;;;;;;;;;;;;;;;;;4877234;29;1305;-57
2023/07/13 09:15:26;;;;;;;;;;;;;;;;;;4876919;29;1248;-59
2023/07/13 09:17:55;;;;;;;;;;;;;;;;;;4877305;29;1164;-59
2023/07/13 09:20:26;;;;;;;;;;;;;;;;;;4876833;29;1158;-59
2023/07/13 09:22:53;;;;;;;;;;;;;;;;;;4876818;29;1015;-58
2023/07/13 09:25:29;;;;;;;;;;;;;;;;;;4877101;29;1073;-57
2023/07/13 09:27:59;;;;;;;;;;;;;;;;;;4877122;29;1919;-60
2023/07/13 09:30:33;;;;;;;;;;;;;;;;;;4876758;29;1128;-58
2023/07/13 09:33:01;;;;;;;;;;;;;;;;;;4876476;29;1300;-58
2023/07/13 09:35:29;;;;;;;;;;;;;;;;;;4877239;29;1360;-58
2023/07/13 09:38:05;;;;;;;;;;;;;;;;;;4876495;29;1236;-58
2023/07/13 09:40:44;;;;;;;;;;;;;;;;;;4877379;29;1497;-58
2023/07/13 09:43:14;;;;;;;;;;;;;;;;;;4876722;29;1043;-58
2023/07/13 09:45:45;;;;;;;;;;;;;;;;;;4876704;29;1138;-58
2023/07/13 09:48:13;;;;;;;;;;;;;;;;;;4876615;29;1986;-57
2023/07/13 09:50:41;;;;;;;;;;;;;;;;;;4877005;29;1283;-57
2023/07/13 09:53:13;;;;;;;;;;;;;;;;;;4876248;29;1304;-58
2023/07/13 09:55:41;;;;;;;;;;;;;;;;;;4877707;29;1056;-58
2023/07/13 09:58:15;;;;;;;;;;;;;;;;;;4880438;29;1292;-58
2023/07/13 10:00:53;;;;;;;;;;;;;;;;;;4880296;29;1055;-59
2023/07/13 10:03:24;;;;;;;;;;;;;;;;;;4880237;29;1711;-58
2023/07/13 10:05:52;;;;;;;;;;;;;;;;;;4880045;29;1707;-58
2023/07/13 10:08:30;;;;;;;;;;;;;;;;;;4887293;29;1976;-58
2023/07/13 10:11:09;;;;;;;;;;;;;;;;;;4899415;29;1066;-59
2023/07/13 10:13:39;;;;;;;;;;;;;;;;;;4898599;29;1158;-58
2023/07/13 10:16:07;;;;;;;;;;;;;;;;;;4899029;29;1211;-58
2023/07/13 10:18:49;;;;;;;;;;;;;;;;;;4898724;29;1262;-59
2023/07/13 10:21:18;;;;;;;;;;;;;;;;;;4898637;29;1159;-58
2023/07/13 10:23:51;;;;;;;;;;;;;;;;;;4898772;29;1015;-57
2023/07/13 10:26:25;;;;;;;;;;;;;;;;;;4898661;29;1976;-58
2023/07/13 10:28:55;;;;;;;;;;;;;;;;;;4898305;29;1195;-59
2023/07/13 10:31:23;;;;;;;;;;;;;;;;;;4898560;29;1074;-58
2023/07/13 10:33:51;;;;;;;;;;;;;;;;;;4898751;29;1162;-58
2023/07/13 10:36:33;;;;;;;;;;;;;;;;;;4897012;29;1035;-59
2023/07/13 10:39:03;;;;;;;;;;;;;;;;;;4898544;29;1135;-57
2023/07/13 10:41:33;;;;;;;;;;;;;;;;;;4898348;29;1023;-59
2023/07/13 10:44:00;;;;;;;;;;;;;;;;;;4898168;29;1155;-59
2023/07/13 10:46:29;;;;;;;;;;;;;;;;;;4898837;29;1906;-59
2023/07/13 10:49:04;;;;;;;;;;;;;;;;;;4898216;29;1157;-59
2023/07/13 10:51:32;;;;;;;;;;;;;;;;;;4898026;29;1246;-59
2023/07/13 10:54:18;;;;;;;;;;;;;;;;;;4866487;29;1367;-59
2023/07/13 10:56:47;;;;;;;;;;;;;;;;;;4879937;29;838;-58
2023/07/13 10:59:27;;;;;;;;;;;;;;;;;;4878962;29;1180;-60
2023/07/13 11:01:57;;;;;;;;;;;;;;;;;;4880156;29;1647;-59
2023/07/13 11:04:26;;;;;;;;;;;;;;;;;;4879281;29;1095;-59
2023/07/13 11:06:56;;;;;;;;;;;;;;;;;;4878092;29;1910;-59
2023/07/13 11:09:40;;;;;;;;;;;;;;;;;;4879232;29;1156;-58
2023/07/13 11:12:10;;;;;;;;;;;;;;;;;;4879214;29;921;-58
2023/07/13 11:14:43;;;;;;;;;;;;;;;;;;4879132;29;1106;-59
2023/07/13 11:17:29;;;;;;;;;;;;;;;;;;4878883;29;999;-57
2023/07/13 11:20:13;;;;;;;;;;;;;;;;;;4878821;29;1408;-57
2023/07/13 11:22:43;;;;;;;;;;;;;;;;;;4879142;29;1056;-59
2023/07/13 11:25:20;;;;;;;;;;;;;;;;;;4879008;29;997;-59
2023/07/13 11:27:51;;;;;;;;;;;;;;;;;;4878872;29;1923;-58
2023/07/13 11:30:22;;;;;;;;;;;;;;;;;;4878611;29;1403;-58
2023/07/13 11:32:51;;;;;;;;;;;;;;;;;;4878892;29;1248;-59
2023/07/13 11:35:23;;;;;;;;;;;;;;;;;;4878424;29;1028;-58
2023/07/13 11:37:51;;;;;;;;;;;;;;;;;;4878839;29;1115;-60
2023/07/13 11:40:19;;;;;;;;;;;;;;;;;;4878675;29;1325;-59
2023/07/13 11:42:46;;;;;;;;;;;;;;;;;;4878459;29;1181;-59
2023/07/13 11:45:22;;;;;;;;;;;;;;;;;;4878614;29;1123;-60
2023/07/13 11:48:00;;;;;;;;;;;;;;;;;;4879282;29;1993;-60
2023/07/13 11:50:27;;;;;;;;;;;;;;;;;;4878349;29;1181;-60
2023/07/13 11:52:56;;;;;;;;;;;;;;;;;;4878285;29;1355;-60
2023/07/13 11:55:24;;;;;;;;;;;;;;;;;;4878402;29;1056;-59
2023/07/13 11:57:58;;;;;;;;;;;;;;;;;;4861371;29;1230;-60
2023/07/13 12:00:28;;;;;;;;;;;;;;;;;;4878507;29;1191;-59
2023/07/13 12:02:57;;;;;;;;;;;;;;;;;;4878464;29;1160;-61
2023/07/13 12:05:24;;;;;;;;;;;;;;;;;;4877218;29;1063;-59
2023/07/13 12:07:54;;;;;;;;;;;;;;;;;;4878412;29;1915;-60
2023/07/13 12:10:25;;;;;;;;;;;;;;;;;;4878145;29;1233;-60
2023/07/13 12:12:55;;;;;;;;;;;;;;;;;;4877995;29;1231;-61
2023/07/13 12:15:24;;;;;;;;;;;;;;;;;;4878226;29;981;-60
2023/07/13 12:17:51;;;;;;;;;;;;;;;;;;4878173;29;1116;-60
2023/07/13 12:20:26;;;;;;;;;;;;;;;;;;4877410;29;1177;-62
2023/07/13 12:22:53;;;;;;;;;;;;;;;;;;4878288;29;1083;-61
2023/07/13 12:25:22;;;;;;;;;;;;;;;;;;4878090;29;910;-60
2023/07/13 12:27:51;;;;;;;;;;;;;;;;;;4876932;29;1976;-60
2023/07/13 12:30:30;;;;;;;;;;;;;;;;;;4876136;29;1150;-60
2023/07/13 12:32:59;;;;;;;;;;;;;;;;;;4876697;29;952;-60
2023/07/13 12:35:29;;;;;;;;;;;;;;;;;;4875989;29;1002;-63
2023/07/13 12:38:00;;;;;;;;;;;;;;;;;;4877425;29;964;-59
2023/07/13 12:40:32;;;;;;;;;;;;;;;;;;4876000;29;1166;-59
2023/07/13 12:43:04;;;;;;;;;;;;;;;;;;4875588;29;1142;-60
2023/07/13 12:45:32;;;;;;;;;;;;;;;;;;4878074;29;1328;-60
2023/07/13 12:48:13;;;;;;;;;;;;;;;;;;4878019;29;1903;-60
2023/07/13 12:50:43;;;;;;;;;;;;;;;;;;4877124;29;1201;-59
2023/07/13 12:53:15;;;;;;;;;;;;;;;;;;4877462;29;1276;-60
2023/07/13 12:55:47;;;;;;;;;;;;;;;;;;4877579;29;1395;-61
2023/07/13 12:58:22;;;;;;;;;;;;;;;;;;4876919;29;1029;-60
2023/07/13 13:00:52;;;;;;;;;;;;;;;;;;4877075;29;1157;-60
2023/07/13 13:03:41;;;;;;;;;;;;;;;;;;4877786;29;983;-60
2023/07/13 13:06:12;;;;;;;;;;;;;;;;;;4877404;29;945;-60
2023/07/13 13:08:43;;;;;;;;;;;;;;;;;;4877228;29;1972;-60
2023/07/13 13:11:10;;;;;;;;;;;;;;;;;;4876711;29;1306;-60
2023/07/13 13:13:37;;;;;;;;;;;;;;;;;;4877199;29;1147;-57
2023/07/13 13:16:24;;;;;;;;;;;;;;;;;;4877389;29;870;-60
2023/07/13 13:18:54;;;;;;;;;;;;;;;;;;4862224;29;1439;-60
2023/07/13 13:21:21;;;;;;;;;;;;;;;;;;4895751;29;1151;-60
2023/07/13 13:23:49;;;;;;;;;;;;;;;;;;4895959;29;1066;-60
2023/07/13 13:26:23;;;;;;;;;;;;;;;;;;4895202;29;1020;-60
2023/07/13 13:28:51;;;;;;;;;;;;;;;;;;4895187;29;1913;-59
2023/07/13 13:31:18;;;;;;;;;;;;;;;;;;4894921;29;1212;-60
2023/07/13 13:33:47;;;;;;;;;;;;;;;;;;4878786;29;1157;-61
2023/07/13 13:36:17;;;;;;;;;;;;;;;;;;4895719;29;861;-60
2023/07/13 13:38:44;;;;;;;;;;;;;;;;;;4895857;29;1041;-60
2023/07/13 13:41:12;;;;;;;;;;;;;;;;;;4895050;29;1213;-60
2023/07/13 13:43:41;;;;;;;;;;;;;;;;;;4895724;29;1124;-59
2023/07/13 13:46:19;;;;;;;;;;;;;;;;;;4895453;29;1038;-58
2023/07/13 13:48:46;;;;;;;;;;;;;;;;;;4895100;29;1906;-58
2023/07/13 13:51:23;;;;;;;;;;;;;;;;;;4895155;29;1200;-56
2023/07/13 13:53:50;;;;;;;;;;;;;;;;;;4881999;29;1287;-56
2023/07/13 13:56:19;;;;;;;;;;;;;;;;;;4876477;29;1088;-54
2023/07/13 13:58:47;;;;;;;;;;;;;;;;;;4877099;29;1312;-55
2023/07/13 14:01:19;;;;;;;;;;;;;;;;;;4876674;29;1134;-56
2023/07/13 14:03:48;;;;;;;;;;;;;;;;;;4876422;29;1515;-53
2023/07/13 14:06:16;;;;;;;;;;;;;;;;;;4877148;29;1272;-56
2023/07/13 14:08:43;;;;;;;;;;;;;;;;;;4877206;29;1907;-52
2023/07/13 14:11:12;;;;;;;;;;;;;;;;;;4876120;29;1272;-54
2023/07/13 14:13:46;;;;;;;;;;;;;;;;;;4876666;29;1090;-55
2023/07/13 14:16:18;;;;;;;;;;;;;;;;;;4876234;29;1208;-53
2023/07/13 14:18:47;;;;;;;;;;;;;;;;;;4876370;29;1299;-53
2023/07/13 14:21:19;;;;;;;;;;;;;;;;;;4875139;29;1249;-52
2023/07/13 14:23:47;;;;;;;;;;;;;;;;;;4876519;29;931;-52
2023/07/13 14:26:16;;;;;;;;;;;;;;;;;;4875751;29;997;-54
2023/07/13 14:28:47;;;;;;;;;;;;;;;;;;4876533;29;1907;-55
2023/07/13 14:31:16;;;;;;;;;;;;;;;;;;4876498;29;1182;-55
2023/07/13 14:33:44;;;;;;;;;;;;;;;;;;4876312;29;1368;-55
2023/07/13 14:36:21;;;;;;;;;;;;;;;;;;4876358;29;1628;-53
2023/07/13 14:38:48;;;;;;;;;;;;;;;;;;4876356;29;1172;-56
2023/07/13 14:41:16;;;;;;;;;;;;;;;;;;4876110;29;1115;-52
2023/07/13 14:43:43;;;;;;;;;;;;;;;;;;4879972;29;1296;-55
2023/07/13 14:46:31;;;;;;;;;;;;;;;;;;4879873;29;1046;-54
2023/07/13 14:49:15;;;;;;;;;;;;;;;;;;4879434;29;1978;-54
2023/07/13 14:51:42;;;;;;;;;;;;;;;;;;4879465;29;1293;-54
2023/07/13 14:54:11;;;;;;;;;;;;;;;;;;4879335;29;1780;-54
2023/07/13 14:56:38;;;;;;;;;;;;;;;;;;4879252;29;1056;-50
2023/07/13 14:59:07;;;;;;;;;;;;;;;;;;4879490;29;1201;-54
2023/07/13 15:01:35;;;;;;;;;;;;;;;;;;4879664;29;1197;-54
2023/07/13 15:04:03;;;;;;;;;;;;;;;;;;4879055;29;1289;-53
2023/07/13 15:06:52;;;;;;;;;;;;;;;;;;4863132;29;1100;-57
2023/07/13 15:09:20;;;;;;;;;;;;;;;;;;4878653;29;1964;-55
2023/07/13 15:11:49;;;;;;;;;;;;;;;;;;4879253;29;1431;-55
2023/07/13 15:14:17;;;;;;;;;;;;;;;;;;4879156;29;1116;-55
2023/07/13 15:16:45;;;;;;;;;;;;;;;;;;4878723;29;990;-56
2023/07/13 15:19:12;;;;;;;;;;;;;;;;;;4879265;29;1139;-55
2023/07/13 15:21:39;;;;;;;;;;;;;;;;;;4879189;29;1157;-55
2023/07/13 15:24:09;;;;;;;;;;;;;;;;;;4878507;29;1241;-55
2023/07/13 15:26:36;;;;;;;;;;;;;;;;;;4879230;29;1156;-55
2023/07/13 15:29:04;;;;;;;;;;;;;;;;;;4878727;29;1986;-51
2023/07/13 15:31:32;;;;;;;;;;;;;;;;;;4878823;29;1364;-55
2023/07/13 15:34:00;;;;;;;;;;;;;;;;;;4878884;29;1335;-55
2023/07/13 15:36:27;;;;;;;;;;;;;;;;;;4877410;29;1025;-53
2023/07/13 15:38:57;;;;;;;;;;;;;;;;;;4876969;29;1047;-54
2023/07/13 15:41:25;;;;;;;;;;;;;;;;;;4877065;29;1178;-55
2023/07/13 15:43:55;;;;;;;;;;;;;;;;;;4877584;29;1021;-55
2023/07/13 15:46:23;;;;;;;;;;;;;;;;;;4876629;29;1173;-52
2023/07/13 15:48:54;;;;;;;;;;;;;;;;;;4875730;29;1907;-55
2023/07/13 15:51:25;;;;;;;;;;;;;;;;;;4875052;29;1194;-55
2023/07/13 15:53:54;;;;;;;;;;;;;;;;;;4874270;29;1367;-56
2023/07/13 15:56:26;;;;;;;;;;;;;;;;;;4875267;29;900;-55
2023/07/13 15:58:54;;;;;;;;;;;;;;;;;;4875270;29;1268;-55
2023/07/13 16:01:22;;;;;;;;;;;;;;;;;;4874664;29;1169;-55
2023/07/13 16:03:51;;;;;;;;;;;;;;;;;;4875485;29;1231;-56
2023/07/13 16:06:26;;;;;;;;;;;;;;;;;;4876520;29;1004;-56
2023/07/13 16:08:53;;;;;;;;;;;;;;;;;;4876183;29;1978;-56
2023/07/13 16:11:23;;;;;;;;;;;;;;;;;;4876514;29;1266;-55
2023/07/13 16:13:54;;;;;;;;;;;;;;;;;;4876724;29;1103;-55
2023/07/13 16:16:31;;;;;;;;;;;;;;;;;;4876083;29;1046;-57
2023/07/13 16:19:00;;;;;;;;;;;;;;;;;;4877116;29;987;-57
2023/07/13 16:21:28;;;;;;;;;;;;;;;;;;4876321;29;1145;-59
2023/07/13 16:23:57;;;;;;;;;;;;;;;;;;4876075;29;983;-57
2023/07/13 16:26:39;;;;;;;;;;;;;;;;;;4876873;29;1036;-56
2023/07/13 16:29:17;;;;;;;;;;;;;;;;;;4876056;29;1990;-57
2023/07/13 16:32:01;;;;;;;;;;;;;;;;;;4859179;29;1216;-56
2023/07/13 16:34:33;;;;;;;;;;;;;;;;;;4876522;29;976;-55
2023/07/13 16:37:02;;;;;;;;;;;;;;;;;;4875438;29;1001;-56
2023/07/13 16:39:29;;;;;;;;;;;;;;;;;;4876136;29;1031;-55
2023/07/13 16:41:58;;;;;;;;;;;;;;;;;;4875948;29;1411;-57
2023/07/13 16:44:27;;;;;;;;;;;;;;;;;;4876193;29;1111;-56
2023/07/13 16:46:55;;;;;;;;;;;;;;;;;;4875836;29;1108;-56
2023/07/13 16:49:28;;;;;;;;;;;;;;;;;;4875983;29;1921;-57
2023/07/13 16:52:02;;;;;;;;;;;;;;;;;;4876105;29;1310;-56
2023/07/13 16:54:31;;;;;;;;;;;;;;;;;;4875867;29;1360;-57
2023/07/13 16:57:00;;;;;;;;;;;;;;;;;;4876201;29;1273;-57
2023/07/13 16:59:30;;;;;;;;;;;;;;;;;;4875417;29;918;-59
2023/07/13 17:01:59;;;;;;;;;;;;;;;;;;4875232;29;1162;-54
2023/07/13 17:04:28;;;;;;;;;;;;;;;;;;4875429;29;1148;-54
2023/07/13 17:06:57;;;;;;;;;;;;;;;;;;4875357;29;1221;-55
2023/07/13 17:09:24;;;;;;;;;;;;;;;;;;4875284;29;1982;-56
2023/07/13 17:11:53;;;;;;;;;;;;;;;;;;4876144;29;1185;-58
2023/07/13 17:14:22;;;;;;;;;;;;;;;;;;4875622;29;974;-55
2023/07/13 17:16:50;;;;;;;;;;;;;;;;;;4875208;29;1077;-56
2023/07/13 17:19:19;;;;;;;;;;;;;;;;;;4875543;29;1154;-56
2023/07/13 17:21:47;;;;;;;;;;;;;;;;;;4875534;29;1162;-55